Time;durP1;ratioP1;P1;durP2;ratioP2;P2;SDS_P1;SDS_P2;PMS_P1;PMS_P2;Temp;Humidity;BMP_temperature;BMP_pressure;BME280_temperature;BME280_humidity;BME280_pressure;Samples;Min_cycle;Max_cycle;Signal;HPM_P1;HPM_P2
2023/05/05 00:02:08;;;;;;;4.40;2.93;;;;;;;15.21;100.00;96453.47;5019824;28;20207;-84
2023/05/05 00:04:35;;;;;;;3.10;2.80;;;;;;;15.20;100.00;96454.53;5007698;28;20282;-84
2023/05/05 00:07:02;;;;;;;3.80;2.63;;;;;;;15.24;100.00;96459.19;5023915;28;20231;-84
2023/05/05 00:09:30;;;;;;;2.60;2.40;;;;;;;15.19;100.00;96455.63;5007176;28;20222;-84
2023/05/05 00:11:58;;;;;;;2.57;2.37;;;;;;;15.19;100.00;96450.16;5010785;28;20211;-84
2023/05/05 00:14:25;;;;;;;5.33;2.93;;;;;;;15.14;100.00;96445.50;5011645;28;20309;-84
2023/05/05 00:16:52;;;;;;;3.00;2.70;;;;;;;15.14;100.00;96451.75;5005881;28;20219;-84
2023/05/05 00:19:19;;;;;;;3.10;2.67;;;;;;;15.14;100.00;96446.31;5020721;28;20323;-85
2023/05/05 00:21:46;;;;;;;2.80;2.40;;;;;;;15.14;100.00;96446.31;5003358;28;20218;-84
2023/05/05 00:24:13;;;;;;;5.90;2.33;;;;;;;15.11;100.00;96448.75;5019987;28;20209;-84
2023/05/05 00:26:41;;;;;;;3.40;2.67;;;;;;;15.04;100.00;96446.22;5004483;28;20230;-84
2023/05/05 00:29:09;;;;;;;2.57;2.37;;;;;;;14.94;100.00;96443.38;5005341;28;20211;-84
2023/05/05 00:31:36;;;;;;;3.77;2.80;;;;;;;14.82;100.00;96439.97;5005508;28;20258;-84
2023/05/05 00:34:03;;;;;;;3.23;2.87;;;;;;;14.74;100.00;96443.16;5026526;28;20191;-84
2023/05/05 00:36:30;;;;;;;2.87;2.47;;;;;;;14.61;100.00;96427.25;5023667;28;20293;-84
2023/05/05 00:38:57;;;;;;;2.87;2.30;;;;;;;14.72;100.00;96434.41;5027008;28;20196;-84
2023/05/05 00:41:25;;;;;;;5.53;2.37;;;;;;;14.72;100.00;96434.41;5008662;28;20234;-84
2023/05/05 00:43:53;;;;;;;2.70;2.43;;;;;;;14.62;100.00;96418.84;5011401;28;20218;-84
2023/05/05 00:46:25;;;;;;;3.33;2.63;;;;;;;14.63;100.00;96425.09;5002530;28;20206;-84
2023/05/05 00:48:52;;;;;;;3.73;2.70;;;;;;;14.61;100.00;96428.06;5041207;28;20215;-84
2023/05/05 00:51:21;;;;;;;5.43;2.50;;;;;;;14.63;100.00;96425.09;5024598;28;20207;-85
2023/05/05 00:53:49;;;;;;;3.13;2.40;;;;;;;14.64;100.00;96429.44;5024717;28;20500;-84
2023/05/05 00:56:20;;;;;;;2.60;2.40;;;;;;;14.65;100.00;96429.19;5010563;28;20296;-84
2023/05/05 00:58:48;;;;;;;3.03;2.40;;;;;;;14.58;100.00;96427.75;5012227;28;20199;-84
2023/05/05 01:01:17;;;;;;;4.57;2.80;;;;;;;14.55;100.00;96422.81;5028342;28;20298;-84
2023/05/05 01:03:45;;;;;;;3.77;2.37;;;;;;;14.47;100.00;96421.34;5005437;28;20280;-84
2023/05/05 01:06:32;;;;;;;3.13;2.53;;;;;;;14.48;100.00;96422.19;4998589;28;20230;-84
2023/05/05 01:09:08;;;;;;;33.50;23.73;;;;;;;14.47;100.00;96426.78;5006388;28;20215;-85
2023/05/05 01:11:46;;;;;;;4.07;2.60;;;;;;;14.45;100.00;96420.81;5001954;28;20207;-84
2023/05/05 01:14:16;;;;;;;9.00;7.70;;;;;;;14.49;100.00;96423.81;5007802;28;20264;-84
2023/05/05 01:16:56;;;;;;;120.17;97.40;;;;;;;14.60;100.00;96431.03;5002490;28;20217;-84
2023/05/05 01:19:53;;;;;;;71.77;64.57;;;;;;;14.58;100.00;96433.19;4997942;28;20281;-84
2023/05/05 01:22:25;;;;;;;93.63;88.00;;;;;;;14.57;100.00;96420.66;4949851;28;20290;-84
2023/05/05 01:25:16;;;;;;;7.07;2.73;;;;;;;14.58;100.00;96419.59;5005520;28;20227;-84
2023/05/05 01:28:00;;;;;;;131.43;117.23;;;;;;;14.60;100.00;96420.16;5006859;28;20234;-84
2023/05/05 01:31:02;;;;;;;19.80;18.43;;;;;;;14.49;100.00;96421.09;5006049;28;20246;-84
2023/05/05 01:33:36;;;;;;;12.40;11.20;;;;;;;14.50;100.00;96420.03;4985841;28;20211;-84
2023/05/05 01:36:07;;;;;;;3.40;2.70;;;;;;;14.47;100.00;96423.25;5006540;28;20210;-84
2023/05/05 01:38:40;;;;;;;220.73;204.43;;;;;;;14.30;100.00;96423.28;5006714;28;20200;-84
2023/05/05 01:41:13;;;;;;;3.10;2.80;;;;;;;14.29;100.00;96438.75;5011780;28;20200;-85
2023/05/05 01:43:44;;;;;;;39.77;36.70;;;;;;;14.33;100.00;96431.75;5003070;28;20212;-84
2023/05/05 01:46:12;;;;;;;2.77;2.53;;;;;;;14.35;100.00;96423.34;5001788;28;20226;-84
2023/05/05 01:48:42;;;;;;;2.80;2.40;;;;;;;14.42;100.00;96425.91;5005309;28;20224;-84
2023/05/05 01:51:10;;;;;;;3.30;2.30;;;;;;;14.49;100.00;96429.25;5017345;28;20294;-84
2023/05/05 01:53:38;;;;;;;4.40;2.60;;;;;;;14.52;100.00;96417.91;5008909;28;20215;-84
2023/05/05 01:56:08;;;;;;;2.70;2.50;;;;;;;14.53;100.00;96411.38;5020913;28;20204;-85
2023/05/05 01:58:37;;;;;;;2.63;2.43;;;;;;;14.54;100.00;96411.16;5019006;28;20207;-84
2023/05/05 02:01:05;;;;;;;2.80;2.60;;;;;;;14.56;100.00;96419.00;5022737;28;20242;-84
2023/05/05 02:03:35;;;;;;;3.17;2.60;;;;;;;14.56;100.00;96419.84;5003871;28;20207;-84
2023/05/05 02:06:04;;;;;;;2.87;2.43;;;;;;;14.59;100.00;96423.94;4999874;28;20246;-84
2023/05/05 02:08:33;;;;;;;3.07;2.63;;;;;;;14.62;100.00;96418.84;5004525;28;20231;-84
2023/05/05 02:11:01;;;;;;;6.63;2.50;;;;;;;14.61;100.00;96424.53;5020848;28;20277;-84
2023/05/05 02:13:31;;;;;;;3.37;2.30;;;;;;;14.64;100.00;96415.84;5005533;28;20219;-85
2023/05/05 02:15:59;;;;;;;2.33;2.13;;;;;;;14.60;100.00;96414.72;5036606;28;20291;-85
2023/05/05 02:18:27;;;;;;;3.30;2.60;;;;;;;14.61;100.00;96416.38;5001584;28;20211;-84
2023/05/05 02:20:54;;;;;;;2.90;2.40;;;;;;;14.64;100.00;96421.28;5004368;28;20415;-85
2023/05/05 02:23:23;;;;;;;4.77;2.50;;;;;;;14.64;100.00;96424.81;5005443;28;20222;-84
2023/05/05 02:25:55;;;;;;;2.67;2.33;;;;;;;14.54;100.00;96413.03;5006586;28;20302;-84
2023/05/05 02:28:33;;;;;;;2.60;2.40;;;;;;;14.44;100.00;96402.03;5006906;28;20219;-84
2023/05/05 02:31:02;;;;;;;2.43;2.23;;;;;;;14.43;100.00;96425.66;5008113;28;20210;-85
2023/05/05 02:33:34;;;;;;;4.63;2.53;;;;;;;14.42;100.00;96429.44;5001221;28;20204;-84
2023/05/05 02:36:09;;;;;;;3.10;2.40;;;;;;;14.38;100.00;96417.41;5005938;28;20200;-85
2023/05/05 02:38:43;;;;;;;2.73;2.53;;;;;;;14.34;100.00;96421.72;5022810;28;20199;-84
2023/05/05 02:41:13;;;;;;;5.20;2.97;;;;;;;14.31;100.00;96424.91;5006334;28;20197;-84
2023/05/05 02:43:43;;;;;;;3.23;2.63;;;;;;;14.20;100.00;96420.44;5000054;28;20211;-85
2023/05/05 02:46:11;;;;;;;3.27;2.60;;;;;;;14.08;100.00;96406.16;5002370;28;20294;-85
2023/05/05 02:48:40;;;;;;;4.80;2.70;;;;;;;14.15;100.00;96418.47;5003680;28;20219;-84
2023/05/05 02:51:08;;;;;;;3.00;2.50;;;;;;;14.19;100.00;96418.81;5000854;28;20206;-84
2023/05/05 02:53:39;;;;;;;2.57;2.23;;;;;;;14.17;100.00;96421.75;5005769;28;20204;-84
2023/05/05 02:56:16;;;;;;;3.53;2.53;;;;;;;14.16;100.00;96417.41;5004375;28;20212;-84
2023/05/05 02:58:54;;;;;;;3.43;3.13;;;;;;;14.16;100.00;96422.84;5000866;28;20204;-84
2023/05/05 03:01:29;;;;;;;3.80;2.40;;;;;;;14.19;100.00;96422.34;5003285;28;20203;-84
2023/05/05 03:04:06;;;;;;;3.40;2.80;;;;;;;14.20;100.00;96415.84;5004913;28;20293;-85
2023/05/05 03:06:42;;;;;;;6.43;2.80;;;;;;;14.18;100.00;96428.03;5017338;28;20239;-84
2023/05/05 03:09:21;;;;;;;3.73;2.70;;;;;;;14.11;100.00;96422.78;5002780;28;20231;-85
2023/05/05 03:11:54;;;;;;;6.27;4.00;;;;;;;14.03;100.00;96415.06;5009340;28;20209;-84
2023/05/05 03:14:22;;;;;;;3.40;2.47;;;;;;;14.06;100.00;96408.28;5008655;28;20203;-84
2023/05/05 03:16:50;;;;;;;4.70;3.30;;;;;;;13.96;100.00;96415.22;5002682;28;20329;-84
2023/05/05 03:19:20;;;;;;;4.17;2.30;;;;;;;13.89;100.00;96408.31;5002350;28;20208;-84
2023/05/05 03:21:51;;;;;;;5.63;3.67;;;;;;;13.90;100.00;96412.69;5001783;28;20234;-84
2023/05/05 03:24:21;;;;;;;4.13;2.87;;;;;;;13.93;100.00;96417.63;5009920;28;20216;-84
2023/05/05 03:26:57;;;;;;;3.37;2.67;;;;;;;13.92;100.00;96411.38;5002021;28;20207;-85
2023/05/05 03:29:29;;;;;;;16.40;13.70;;;;;;;13.91;100.00;96407.00;5001595;28;20251;-84
2023/05/05 03:31:59;;;;;;;4.77;2.57;;;;;;;13.92;100.00;96424.94;5019663;28;20207;-85
2023/05/05 03:34:27;;;;;;;3.10;2.80;;;;;;;13.94;100.00;96413.84;5000338;28;20207;-84
2023/05/05 03:36:55;;;;;;;4.70;2.70;;;;;;;13.86;100.00;96415.09;5003022;28;20203;-84
2023/05/05 03:39:23;;;;;;;4.37;3.60;;;;;;;13.79;100.00;96416.31;5000779;28;20204;-84
2023/05/05 03:41:51;;;;;;;3.47;2.67;;;;;;;13.69;100.00;96408.88;5010558;28;20203;-84
2023/05/05 03:44:21;;;;;;;119.47;83.40;;;;;;;13.63;100.00;96410.66;5001868;28;22231;-84
2023/05/05 03:46:48;;;;;;;101.57;90.83;;;;;;;13.56;100.00;96418.16;5001910;28;20212;-84
2023/05/05 03:49:16;;;;;;;5.43;3.50;;;;;;;13.50;100.00;96411.00;4998397;28;20247;-84
2023/05/05 03:51:46;;;;;;;3.83;3.43;;;;;;;13.44;100.00;96411.97;5000850;28;20211;-84
2023/05/05 03:54:13;;;;;;;3.43;2.90;;;;;;;13.45;100.00;96415.50;4999120;28;20204;-85
2023/05/05 03:56:42;;;;;;;3.43;2.67;;;;;;;13.48;100.00;96421.28;5005693;28;20203;-85
2023/05/05 03:59:11;;;;;;;2.93;2.63;;;;;;;13.52;100.00;96414.31;4998514;28;20208;-84
2023/05/05 04:01:38;;;;;;;3.03;2.73;;;;;;;13.51;100.00;96414.53;5001503;28;20211;-84
2023/05/05 04:04:08;;;;;;;3.97;2.93;;;;;;;13.50;100.00;96410.19;5001134;28;20210;-84
2023/05/05 04:06:35;;;;;;;3.37;2.60;;;;;;;13.64;100.00;96412.31;4999709;28;20546;-84
2023/05/05 04:09:02;;;;;;;3.40;2.63;;;;;;;13.67;100.00;96404.75;5006717;28;20223;-84
2023/05/05 04:11:30;;;;;;;3.73;2.80;;;;;;;13.69;100.00;96410.75;5005973;28;20211;-84
2023/05/05 04:13:59;;;;;;;3.00;2.70;;;;;;;13.64;100.00;96406.06;5009416;28;20207;-84
2023/05/05 04:16:28;;;;;;;7.57;3.23;;;;;;;13.77;100.00;96403.00;5002991;28;20220;-85
2023/05/05 04:18:56;;;;;;;3.40;2.83;;;;;;;13.71;100.00;96408.59;5005440;28;20200;-84
2023/05/05 04:21:23;;;;;;;659.50;603.37;;;;;;;13.64;100.00;96404.16;4999616;28;20282;-85
2023/05/05 04:23:51;;;;;;;169.40;151.83;;;;;;;13.68;100.00;96406.41;4999791;28;20200;-85
2023/05/05 04:26:19;;;;;;;10.77;8.43;;;;;;;13.69;100.00;96413.47;5003878;28;20250;-84
2023/05/05 04:28:47;;;;;;;3.37;2.70;;;;;;;13.62;100.00;96409.00;4996780;28;20219;-85
2023/05/05 04:31:17;;;;;;;4.37;2.57;;;;;;;13.73;100.00;96414.59;5002492;28;20211;-85
2023/05/05 04:33:45;;;;;;;2.93;2.70;;;;;;;13.75;100.00;96401.63;5000618;28;20253;-85
2023/05/05 04:36:13;;;;;;;3.07;2.50;;;;;;;13.73;100.00;96404.56;5017232;28;20196;-85
2023/05/05 04:38:41;;;;;;;3.47;2.60;;;;;;;13.78;100.00;96401.91;5006653;28;20208;-85
2023/05/05 04:41:08;;;;;;;2.97;2.50;;;;;;;13.81;100.00;96408.75;5007935;28;20210;-85
2023/05/05 04:43:37;;;;;;;5.30;3.50;;;;;;;13.79;100.00;96408.16;5006178;28;20211;-85
2023/05/05 04:46:05;;;;;;;3.33;2.77;;;;;;;13.76;100.00;96403.25;5001115;28;20219;-85
2023/05/05 04:48:37;;;;;;;3.63;2.90;;;;;;;13.78;100.00;96409.28;5011517;28;20270;-85
2023/05/05 04:51:05;;;;;;;3.27;2.70;;;;;;;13.74;100.00;96400.78;5002810;28;20238;-85
2023/05/05 04:53:33;;;;;;;2.83;2.47;;;;;;;13.68;100.00;96396.38;4999972;28;20200;-85
2023/05/05 04:56:00;;;;;;;3.60;2.50;;;;;;;13.69;100.00;96405.31;5000488;28;20207;-84
2023/05/05 04:58:27;;;;;;;3.83;2.70;;;;;;;13.69;100.00;96402.63;5006572;28;20208;-85
2023/05/05 05:00:55;;;;;;;4.23;2.57;;;;;;;13.70;100.00;96406.94;4999287;28;20215;-85
2023/05/05 05:03:22;;;;;;;7.37;2.93;;;;;;;13.72;100.00;96402.09;5000305;28;20199;-85
2023/05/05 05:05:51;;;;;;;3.77;2.83;;;;;;;13.68;100.00;96400.97;4999709;28;20269;-84
2023/05/05 05:08:18;;;;;;;3.03;2.60;;;;;;;13.61;100.00;96398.41;5006456;28;20219;-85
2023/05/05 05:10:45;;;;;;;4.33;2.90;;;;;;;13.61;100.00;96401.13;5001631;28;20427;-85
2023/05/05 05:13:12;;;;;;;3.60;2.90;;;;;;;13.57;100.00;96394.56;5005968;28;20218;-85
2023/05/05 05:15:40;;;;;;;4.53;2.50;;;;;;;13.66;100.00;96403.09;5003731;28;20199;-85
2023/05/05 05:18:07;;;;;;;3.47;2.67;;;;;;;13.66;100.00;96395.78;5008779;28;20210;-85
2023/05/05 05:20:34;;;;;;;4.00;2.60;;;;;;;13.64;100.00;96406.88;5003188;28;20204;-85
2023/05/05 05:23:03;;;;;;;2.63;2.40;;;;;;;13.63;100.00;96409.84;5007986;28;20211;-84
2023/05/05 05:25:32;;;;;;;30.70;20.43;;;;;;;13.66;100.00;96408.53;5003971;28;20289;-85
2023/05/05 05:27:59;;;;;;;3.00;2.70;;;;;;;13.70;100.00;96405.06;5002315;28;20311;-85
2023/05/05 05:30:27;;;;;;;2.97;2.60;;;;;;;13.74;100.00;96413.53;5004109;28;20205;-85
2023/05/05 05:32:54;;;;;;;3.60;2.63;;;;;;;13.77;100.00;96410.34;5001316;28;20282;-84
2023/05/05 05:35:22;;;;;;;2.60;2.40;;;;;;;13.85;100.00;96418.06;5002483;28;20204;-84
2023/05/05 05:37:50;;;;;;;4.17;2.63;;;;;;;13.91;100.00;96415.16;5003840;28;20210;-84
2023/05/05 05:40:19;;;;;;;2.50;2.30;;;;;;;13.90;100.00;96410.78;5008536;28;20214;-84
2023/05/05 05:42:47;;;;;;;4.97;2.70;;;;;;;13.88;100.00;96412.94;5008892;28;20250;-84
2023/05/05 05:45:14;;;;;;;4.00;3.03;;;;;;;13.90;100.00;96415.41;5003759;28;20230;-84
2023/05/05 05:47:41;;;;;;;6.67;3.20;;;;;;;13.88;100.00;96414.81;5006700;28;20195;-84
2023/05/05 05:50:09;;;;;;;4.47;2.50;;;;;;;13.90;100.00;96409.97;5005279;28;20219;-84
2023/05/05 05:52:36;;;;;;;3.73;3.17;;;;;;;13.90;100.00;96415.41;5000350;28;20199;-84
2023/05/05 05:55:06;;;;;;;5.70;2.77;;;;;;;13.93;100.00;96418.44;5004536;28;20208;-84
2023/05/05 05:57:36;;;;;;;3.20;2.90;;;;;;;13.90;100.00;96412.69;5006154;28;20223;-84
2023/05/05 06:00:06;;;;;;;4.17;2.70;;;;;;;13.84;100.00;96417.22;5006589;28;20200;-84
2023/05/05 06:02:38;;;;;;;3.97;3.00;;;;;;;13.74;100.00;96406.22;4998115;28;20216;-84
2023/05/05 06:05:11;;;;;;;4.30;2.80;;;;;;;13.68;100.00;96417.25;5006323;28;20236;-84
2023/05/05 06:07:39;;;;;;;3.47;3.17;;;;;;;13.69;100.00;96408.88;5008693;28;20210;-84
2023/05/05 06:10:08;;;;;;;5.43;2.93;;;;;;;13.67;100.00;96410.19;5010075;28;20222;-84
2023/05/05 06:12:36;;;;;;;4.23;3.83;;;;;;;13.73;100.00;96404.56;5025300;28;20207;-84
2023/05/05 06:15:04;;;;;;;5.90;2.80;;;;;;;13.75;100.00;96412.47;5009547;28;20206;-84
2023/05/05 06:17:31;;;;;;;5.47;2.80;;;;;;;13.82;100.00;96410.41;5007086;28;20206;-84
2023/05/05 06:19:58;;;;;;;4.20;3.10;;;;;;;13.89;100.00;96413.75;5028011;28;20206;-84
2023/05/05 06:22:25;;;;;;;2.87;2.67;;;;;;;13.95;100.00;96415.50;5011652;28;20272;-84
2023/05/05 06:24:52;;;;;;;5.33;3.00;;;;;;;13.98;100.00;96418.50;5013185;28;20202;-84
2023/05/05 06:27:20;;;;;;;8.97;3.30;;;;;;;13.99;100.00;96416.63;5012366;28;20297;-84
2023/05/05 06:29:48;;;;;;;7.43;3.30;;;;;;;14.03;100.00;96420.50;5028110;28;20300;-85
2023/05/05 06:32:15;;;;;;;4.37;3.53;;;;;;;14.01;100.00;96419.91;5029974;28;20206;-84
2023/05/05 06:34:43;;;;;;;6.43;3.47;;;;;;;13.93;100.00;96421.16;5027733;28;20234;-84
2023/05/05 06:37:11;;;;;;;4.33;3.40;;;;;;;13.84;100.00;96419.13;5021818;28;20276;-84
2023/05/05 06:39:37;;;;;;;11.70;4.20;;;;;;;13.80;100.00;96420.66;5011153;28;20333;-84
2023/05/05 06:42:05;;;;;;;4.33;3.77;;;;;;;13.81;100.00;96425.03;5012690;28;20301;-84
2023/05/05 06:44:33;;;;;;;7.00;3.80;;;;;;;13.87;100.00;96421.31;5025714;28;20286;-84
2023/05/05 06:47:02;;;;;;;5.30;3.77;;;;;;;13.94;100.00;96414.66;5006888;28;20213;-83
2023/05/05 06:49:29;;;;;;;7.03;3.57;;;;;;;13.99;100.00;96420.16;5007654;28;20219;-84
2023/05/05 06:51:56;;;;;;;858.63;785.53;;;;;;;14.03;100.00;96415.84;5011943;28;20209;-85
2023/05/05 06:54:23;;;;;;;671.33;617.60;;;;;;;14.10;100.00;96414.88;5011229;28;20241;-84
2023/05/05 06:56:50;;;;;;;952.50;876.63;;;;;;;14.11;100.00;96411.91;5011392;28;20391;-84
2023/05/05 06:59:17;;;;;;;925.00;854.60;;;;;;;14.18;100.00;96412.53;5011866;28;20199;-83
2023/05/05 07:01:44;;;;;;;914.63;848.83;;;;;;;14.15;100.00;96417.66;5011309;28;20310;-83
2023/05/05 07:04:12;;;;;;;113.23;83.00;;;;;;;14.19;100.00;96413.38;5008631;28;20272;-84
2023/05/05 07:06:39;;;;;;;400.95;367.58;;;;;;;14.25;100.00;96410.47;5008453;28;20234;-84
2023/05/05 07:09:07;;;;;;;856.37;788.73;;;;;;;14.33;100.00;96407.31;5012890;28;20218;-83
2023/05/05 07:11:34;;;;;;;438.37;402.93;;;;;;;14.40;100.00;96407.16;5007129;28;20233;-84
2023/05/05 07:14:01;;;;;;;794.53;736.57;;;;;;;14.48;100.00;96405.88;5011596;28;20203;-84
2023/05/05 07:16:28;;;;;;;3.10;2.63;;;;;;;14.55;100.00;96401.88;5010316;28;20211;-84
2023/05/05 07:18:55;;;;;;;24.33;22.27;;;;;;;14.70;100.00;96404.81;5009815;28;20206;-84
2023/05/05 07:21:24;;;;;;;4.07;2.67;;;;;;;15.07;100.00;96399.47;5028617;28;20202;-84
2023/05/05 07:23:51;;;;;;;3.27;2.73;;;;;;;15.48;100.00;96400.63;5012752;28;20207;-83
2023/05/05 07:26:18;;;;;;;3.20;2.77;;;;;;;15.69;100.00;96396.22;5029487;28;20226;-83
2023/05/05 07:28:45;;;;;;;8.47;3.00;;;;;;;15.88;100.00;96405.63;5007162;28;20210;-83
2023/05/05 07:31:12;;;;;;;4.53;3.30;;;;;;;16.11;100.00;96406.28;5009591;28;20203;-83
2023/05/05 07:33:39;;;;;;;11.97;10.80;;;;;;;16.32;100.00;96410.78;5028563;28;20202;-83
2023/05/05 07:36:06;;;;;;;118.57;107.97;;;;;;;16.43;100.00;96396.09;5004919;28;20284;-83
2023/05/05 07:38:34;;;;;;;7.30;3.20;;;;;;;16.63;100.00;96387.22;5008178;28;20207;-84
2023/05/05 07:41:01;;;;;;;3.07;2.77;;;;;;;17.02;100.00;96384.84;5017649;28;20210;-84
2023/05/05 07:43:29;;;;;;;4.33;2.93;;;;;;;17.21;100.00;96391.44;5011087;28;20207;-84
2023/05/05 07:45:56;;;;;;;4.20;2.93;;;;;;;17.39;100.00;96382.72;5013163;28;20217;-84
2023/05/05 07:48:23;;;;;;;3.90;2.60;;;;;;;17.66;100.00;96392.59;5000448;28;20210;-84
2023/05/05 07:50:51;;;;;;;4.67;3.13;;;;;;;17.82;100.00;96390.66;5009435;28;20231;-84
2023/05/05 07:53:18;;;;;;;6.00;2.90;;;;;;;18.06;99.91;96383.50;5009202;28;20195;-84
2023/05/05 07:55:46;;;;;;;5.30;2.80;;;;;;;18.37;94.90;96387.00;5007251;28;20208;-84
2023/05/05 07:58:13;;;;;;;3.37;3.07;;;;;;;18.58;91.43;96383.09;5006698;28;20203;-84
2023/05/05 08:00:42;;;;;;;5.00;3.57;;;;;;;18.79;87.80;96386.56;5026710;28;20213;-84
2023/05/05 08:03:09;;;;;;;6.43;3.47;;;;;;;19.01;84.48;96386.16;5027283;28;20290;-84
2023/05/05 08:05:38;;;;;;;3.03;2.50;;;;;;;18.99;86.70;96374.69;5027083;28;20262;-84
2023/05/05 08:08:05;;;;;;;2.83;2.58;;;;;;;19.12;82.96;96372.16;5004498;28;20231;-84
2023/05/05 08:10:32;;;;;;;4.93;2.72;;;;;;;19.35;82.15;96365.13;5000666;28;20219;-84
2023/05/05 08:13:01;;;;;;;3.85;2.72;;;;;;;19.23;83.62;96357.28;5021542;28;20207;-84
2023/05/05 08:15:28;;;;;;;2.70;2.45;;;;;;;19.24;84.26;96353.44;5024728;28;20199;-84
2023/05/05 08:17:55;;;;;;;3.95;3.00;;;;;;;19.39;81.50;96360.75;5021631;28;20194;-84
2023/05/05 08:20:22;;;;;;;4.25;2.75;;;;;;;19.55;80.07;96351.31;5028337;28;20199;-85
2023/05/05 08:22:50;;;;;;;4.93;2.40;;;;;;;19.92;77.85;96353.44;5008581;28;20214;-85
2023/05/05 08:25:17;;;;;;;5.97;2.75;;;;;;;20.26;74.25;96347.84;5008153;28;20222;-85
2023/05/05 08:27:44;;;;;;;7.93;3.13;;;;;;;20.18;68.99;96339.44;5012850;28;20290;-85
2023/05/05 08:30:16;;;;;;;3.20;2.33;;;;;;;20.10;70.23;96340.91;5013158;28;20234;-85
2023/05/05 08:32:43;;;;;;;3.63;2.40;;;;;;;20.10;69.35;96337.34;5027271;28;20199;-85
2023/05/05 08:35:10;;;;;;;4.13;2.90;;;;;;;20.45;68.85;96338.91;5028428;28;20218;-85
2023/05/05 08:37:37;;;;;;;4.45;2.55;;;;;;;20.72;68.84;96341.84;5010301;28;20218;-85
2023/05/05 08:40:05;;;;;;;2.53;2.05;;;;;;;21.01;62.50;96331.53;5010508;28;20210;-84
2023/05/05 08:42:33;;;;;;;5.88;2.58;;;;;;;21.01;63.26;96323.28;5020361;28;20212;-85
2023/05/05 08:45:01;;;;;;;4.38;2.70;;;;;;;21.17;63.13;96321.19;5004516;28;20210;-85
2023/05/05 08:47:30;;;;;;;4.32;2.75;;;;;;;21.22;63.27;96314.78;5025897;28;20199;-85
2023/05/05 08:50:00;;;;;;;8.57;6.30;;;;;;;21.31;62.63;96324.00;5005755;28;20223;-86
2023/05/05 08:52:33;;;;;;;57.17;32.05;;;;;;;21.38;62.02;96319.75;5025191;28;20273;-86
2023/05/05 08:55:09;;;;;;;6.03;2.83;;;;;;;21.32;61.81;96315.44;5012856;28;20297;-86
2023/05/05 08:57:43;;;;;;;5.43;3.17;;;;;;;21.18;63.60;96319.28;5022042;28;20277;-83
2023/05/05 09:00:12;;;;;;;288.17;263.15;;;;;;;21.22;64.94;96314.78;5032251;28;20258;-84
2023/05/05 09:02:43;;;;;;;510.25;465.92;;;;;;;21.30;64.96;96322.34;5011483;28;20198;-83
2023/05/05 09:05:10;;;;;;;3.05;2.67;;;;;;;21.50;64.00;96319.28;5006637;28;20250;-83
2023/05/05 09:07:40;;;;;;;6.30;3.03;;;;;;;21.58;63.86;96312.28;5028248;28;20217;-83
2023/05/05 09:10:09;;;;;;;9.82;8.90;;;;;;;21.70;64.04;96307.91;5016267;28;20301;-83
2023/05/05 09:12:39;;;;;;;5.30;2.55;;;;;;;21.78;60.85;96315.47;5013950;28;20206;-86
2023/05/05 09:15:07;;;;;;;2.60;2.40;;;;;;;21.86;60.13;96306.53;5012901;28;20207;-84
2023/05/05 09:17:34;;;;;;;3.60;2.38;;;;;;;22.10;60.15;96311.09;5009181;28;20207;-83
2023/05/05 09:20:06;;;;;;;3.13;2.78;;;;;;;22.13;57.85;96299.47;5028933;28;20207;-84
2023/05/05 09:22:37;;;;;;;6.25;2.85;;;;;;;22.22;58.50;96292.94;5012710;28;20338;-83
2023/05/05 09:25:06;;;;;;;3.15;2.60;;;;;;;22.33;58.06;96293.56;5015743;28;20253;-83
2023/05/05 09:27:36;;;;;;;3.13;2.75;;;;;;;22.26;59.18;96284.91;5013157;28;20261;-83
2023/05/05 09:30:04;;;;;;;4.90;2.40;;;;;;;22.34;59.65;96291.63;5004320;28;20274;-84
2023/05/05 09:32:42;;;;;;;9.18;7.57;;;;;;;22.25;56.73;96283.28;5027859;28;20199;-84
2023/05/05 09:35:11;;;;;;;4.00;3.00;;;;;;;22.16;58.44;96287.88;5025795;28;20245;-84
2023/05/05 09:37:38;;;;;;;4.30;2.70;;;;;;;22.30;59.28;96276.84;5029010;28;20211;-86
2023/05/05 09:40:08;;;;;;;65.65;57.60;;;;;;;22.20;59.63;96269.66;5019332;28;20209;-83
2023/05/05 09:42:37;;;;;;;373.48;328.80;;;;;;;22.35;59.07;96274.00;5010139;28;20210;-83
2023/05/05 09:45:23;;;;;;;141.18;126.43;;;;;;;22.40;59.26;96263.69;5012950;28;20242;-84
2023/05/05 09:47:50;;;;;;;746.00;687.50;;;;;;;22.36;59.74;96265.44;5012051;28;20234;-89
2023/05/05 09:50:19;;;;;;;4.97;2.90;;;;;;;22.31;60.44;96260.03;5012023;28;20233;-88
2023/05/05 09:52:56;;;;;;;304.13;276.80;;;;;;;22.35;60.54;96266.56;5030694;28;20291;-89
2023/05/05 09:55:23;;;;;;;782.20;720.78;;;;;;;22.52;61.10;96252.19;5006968;28;20277;-89
2023/05/05 09:57:50;;;;;;;1234.87;999.90;;;;;;;22.74;59.59;96257.75;5027432;28;20198;-90
2023/05/05 10:00:19;;;;;;;258.80;233.98;;;;;;;22.52;57.63;96250.25;5018885;28;20211;-88
2023/05/05 10:02:47;;;;;;;4.60;2.30;;;;;;;22.47;58.79;96253.09;5010539;28;20210;-86
2023/05/05 10:05:16;;;;;;;2.92;2.25;;;;;;;22.52;58.78;96255.75;5011102;28;20239;-87
2023/05/05 10:07:45;;;;;;;8.30;2.88;;;;;;;22.62;59.81;96254.72;5003041;28;20210;-86
2023/05/05 10:10:14;;;;;;;5.82;2.33;;;;;;;22.63;58.34;96251.63;5002337;28;20330;-86
2023/05/05 10:12:42;;;;;;;3.95;2.63;;;;;;;22.41;58.62;96245.25;5013182;28;20213;-86
2023/05/05 10:15:11;;;;;;;4.30;2.28;;;;;;;22.55;58.14;96246.03;5014411;28;20290;-87
2023/05/05 10:17:46;;;;;;;5.13;2.80;;;;;;;22.60;57.89;96246.75;5008037;28;20214;-87
2023/05/05 10:20:14;;;;;;;3.17;2.70;;;;;;;22.72;57.67;96248.13;5009342;28;20203;-89
2023/05/05 10:22:52;;;;;;;5.13;2.65;;;;;;;22.80;57.09;96244.69;5013156;28;20241;-86
2023/05/05 10:25:25;;;;;;;2.85;2.65;;;;;;;22.77;57.19;96235.13;5012583;28;20198;-86
2023/05/05 10:27:56;;;;;;;3.15;2.45;;;;;;;22.90;58.70;96238.94;5009891;28;20211;-87
2023/05/05 10:30:25;;;;;;;3.13;2.50;;;;;;;23.11;59.17;96237.34;5015958;28;20326;-86
2023/05/05 10:32:58;;;;;;;3.35;2.33;;;;;;;23.27;58.31;96237.78;5010697;28;20212;-87
2023/05/05 10:35:26;;;;;;;3.33;2.55;;;;;;;23.37;57.90;96230.06;5024841;28;20231;-88
2023/05/05 10:37:56;;;;;;;6.82;2.55;;;;;;;23.50;56.01;96227.56;5007941;28;20210;-85
2023/05/05 10:40:24;;;;;;;2.55;2.10;;;;;;;23.49;54.94;96223.19;5015496;28;20211;-85
2023/05/05 10:42:54;;;;;;;3.83;2.60;;;;;;;23.41;56.71;96216.47;5025746;28;20211;-87
2023/05/05 10:45:21;;;;;;;4.25;2.45;;;;;;;23.35;55.44;96218.53;5006278;28;20516;-88
2023/05/05 10:47:49;;;;;;;2.60;2.40;;;;;;;23.46;55.20;96205.31;5011511;28;20214;-87
2023/05/05 10:50:27;;;;;;;3.35;2.45;;;;;;;23.49;56.13;96201.94;5007787;28;20230;-87
2023/05/05 10:53:08;;;;;;;4.03;2.40;;;;;;;23.58;56.04;96205.56;5016685;28;20203;-87
2023/05/05 10:55:42;;;;;;;5.35;2.38;;;;;;;23.66;55.74;96199.28;5003323;28;20202;-86
2023/05/05 10:58:09;;;;;;;2.80;2.45;;;;;;;23.59;55.52;96195.34;5028342;28;20253;-88
2023/05/05 11:00:51;;;;;;;4.07;2.25;;;;;;;23.77;54.93;96191.56;5009893;28;20200;-87
2023/05/05 11:03:22;;;;;;;5.20;2.60;;;;;;;23.78;55.30;96176.63;5013653;28;20209;-86
2023/05/05 11:06:11;;;;;;;3.83;2.50;;;;;;;24.04;55.77;96187.75;5005114;28;20236;-87
2023/05/05 11:08:41;;;;;;;7.57;2.53;;;;;;;24.05;55.88;96181.13;5008237;28;20234;-88
2023/05/05 11:11:10;;;;;;;3.85;2.47;;;;;;;24.02;55.69;96173.47;5004441;28;20219;-88
2023/05/05 11:13:39;;;;;;;2.40;2.20;;;;;;;23.93;55.49;96161.59;5027075;28;20229;-87
2023/05/05 11:16:43;;;;;;;2.67;2.40;;;;;;;24.02;55.06;96166.00;5007490;28;20195;-85
2023/05/05 11:19:47;;;;;;;3.55;2.60;;;;;;;23.75;55.46;96158.78;5009509;28;20228;-87
2023/05/05 11:22:15;;;;;;;2.90;2.60;;;;;;;23.65;56.53;96152.72;5008621;28;20209;-87
2023/05/05 11:24:43;;;;;;;2.72;2.30;;;;;;;23.50;56.33;96155.91;5025189;28;20274;-85
2023/05/05 11:27:12;;;;;;;2.63;2.10;;;;;;;23.69;57.86;96150.97;4981665;28;20606;-85
2023/05/05 11:30:05;;;;;;;3.42;2.40;;;;;;;23.81;55.69;96153.13;5009505;28;20207;-84
2023/05/05 11:32:34;;;;;;;2.47;2.28;;;;;;;23.82;57.37;96149.25;4998984;28;20203;-86
2023/05/05 11:35:02;;;;;;;2.75;2.50;;;;;;;23.71;56.36;96148.72;4991250;28;20266;-83
2023/05/05 11:37:29;;;;;;;5.05;2.75;;;;;;;23.83;56.52;96145.34;4990195;28;20207;-83